Time;durP1;ratioP1;P1;durP2;ratioP2;P2;SDS_P1;SDS_P2;PMS_P1;PMS_P2;Temp;Humidity;BMP_temperature;BMP_pressure;BME280_temperature;BME280_humidity;BME280_pressure;Samples;Min_cycle;Max_cycle;Signal;HPM_P1;HPM_P2
2024/03/22 00:02:01;;;;;;;28.27;17.83;;;11.90;99.90;;;;;;5032568;28;20444;-67
2024/03/22 00:04:26;;;;;;;31.50;19.83;;;11.90;99.90;;;;;;5033933;28;20428;-68
2024/03/22 00:06:52;;;;;;;26.43;18.33;;;11.90;99.90;;;;;;5031236;28;20634;-67
2024/03/22 00:09:17;;;;;;;27.50;19.57;;;11.90;99.90;;;;;;5033012;28;20635;-68
2024/03/22 00:11:44;;;;;;;28.17;19.00;;;11.90;99.90;;;;;;5033715;28;20562;-67
2024/03/22 00:14:11;;;;;;;30.70;19.03;;;11.90;99.90;;;;;;5033356;28;20221;-67
2024/03/22 00:16:37;;;;;;;27.83;18.67;;;11.90;99.90;;;;;;5034130;28;20424;-68
2024/03/22 00:19:03;;;;;;;27.27;19.27;;;11.90;99.90;;;;;;5032652;28;20429;-69
2024/03/22 00:21:29;;;;;;;28.87;18.43;;;11.90;99.90;;;;;;5034142;28;20429;-67
2024/03/22 00:23:56;;;;;;;28.27;18.07;;;11.90;99.90;;;;;;5031959;28;20490;-66
2024/03/22 00:26:21;;;;;;;29.30;18.80;;;11.90;99.90;;;;;;5033116;28;20428;-67
2024/03/22 00:28:47;;;;;;;28.60;18.07;;;11.80;99.90;;;;;;5033881;28;20519;-66
2024/03/22 00:31:13;;;;;;;25.77;18.60;;;11.80;99.90;;;;;;5032657;28;20987;-69
2024/03/22 00:33:38;;;;;;;30.60;19.03;;;11.80;99.90;;;;;;5034824;28;20293;-69
2024/03/22 00:36:05;;;;;;;27.30;18.20;;;11.90;99.90;;;;;;5032841;28;20189;-68
2024/03/22 00:38:31;;;;;;;26.57;17.30;;;11.90;99.90;;;;;;5033618;28;20865;-68
2024/03/22 00:40:56;;;;;;;27.40;17.87;;;11.80;99.90;;;;;;5032322;28;21153;-68
2024/03/22 00:43:22;;;;;;;26.57;17.77;;;11.80;99.90;;;;;;5033115;28;20432;-67
2024/03/22 00:45:48;;;;;;;29.57;18.83;;;11.80;99.90;;;;;;5031823;28;20837;-70
2024/03/22 00:48:14;;;;;;;28.97;18.80;;;11.80;99.90;;;;;;5033769;28;20205;-66
2024/03/22 00:50:39;;;;;;;29.47;19.33;;;11.80;99.90;;;;;;5033623;28;20260;-68
2024/03/22 00:53:07;;;;;;;25.60;17.50;;;11.80;99.90;;;;;;5033079;28;20451;-68
2024/03/22 00:55:33;;;;;;;28.87;19.37;;;11.80;99.90;;;;;;5033049;28;20459;-68
2024/03/22 00:57:59;;;;;;;24.33;16.77;;;11.80;99.90;;;;;;5031395;28;20578;-69
2024/03/22 01:00:25;;;;;;;31.03;18.37;;;11.80;99.90;;;;;;5033993;28;20466;-66
2024/03/22 01:02:51;;;;;;;25.93;18.63;;;11.80;99.90;;;;;;5032884;28;20186;-67
2024/03/22 01:05:17;;;;;;;32.30;19.20;;;11.70;99.90;;;;;;5033384;28;20177;-69
2024/03/22 01:07:43;;;;;;;23.77;16.43;;;11.70;99.90;;;;;;5033098;28;20435;-67
2024/03/22 01:10:10;;;;;;;26.10;17.77;;;11.70;99.90;;;;;;5034197;28;20429;-67
2024/03/22 01:12:36;;;;;;;33.83;19.47;;;11.70;99.90;;;;;;5033858;28;20456;-69
2024/03/22 01:15:03;;;;;;;31.83;18.07;;;11.80;99.90;;;;;;5033250;28;20954;-68
2024/03/22 01:17:28;;;;;;;30.60;20.07;;;11.80;99.90;;;;;;5032611;28;20540;-69
2024/03/22 01:19:54;;;;;;;25.80;17.90;;;11.80;99.90;;;;;;5032956;28;20428;-67
2024/03/22 01:22:20;;;;;;;27.23;18.20;;;11.90;99.90;;;;;;5033049;28;20684;-69
2024/03/22 01:24:45;;;;;;;25.80;17.60;;;11.90;99.90;;;;;;5032980;28;20241;-69
2024/03/22 01:27:12;;;;;;;24.17;17.17;;;11.90;99.90;;;;;;5033448;28;20224;-67
2024/03/22 01:29:38;;;;;;;29.53;19.33;;;12.00;99.90;;;;;;5032797;28;20185;-67
2024/03/22 01:32:04;;;;;;;31.40;18.73;;;12.00;99.90;;;;;;5032415;28;20439;-70
2024/03/22 01:34:29;;;;;;;26.50;17.47;;;12.00;99.90;;;;;;5033891;28;20217;-67
2024/03/22 01:36:55;;;;;;;25.87;17.40;;;11.90;99.90;;;;;;5037020;28;20428;-68
2024/03/22 01:39:21;;;;;;;24.40;17.40;;;11.90;99.90;;;;;;5036502;28;20611;-67
2024/03/22 01:41:48;;;;;;;26.13;18.07;;;12.00;99.90;;;;;;5036532;28;20185;-68
2024/03/22 01:44:14;;;;;;;27.37;17.83;;;12.00;99.90;;;;;;5034633;28;20965;-66
2024/03/22 01:46:41;;;;;;;30.73;18.03;;;12.10;99.90;;;;;;5037099;28;20447;-68
2024/03/22 01:49:13;;;;;;;29.57;17.63;;;12.20;99.90;;;;;;5036702;28;20450;-67
2024/03/22 01:51:42;;;;;;;26.17;17.20;;;12.20;99.90;;;;;;5034856;28;20462;-67
2024/03/22 01:54:11;;;;;;;24.80;16.20;;;12.20;99.90;;;;;;5036412;28;20468;-67
2024/03/22 01:56:38;;;;;;;27.77;16.90;;;12.30;99.90;;;;;;5037915;28;20432;-66
2024/03/22 01:59:05;;;;;;;26.40;18.50;;;12.20;99.90;;;;;;5035626;28;20432;-68
2024/03/22 02:01:31;;;;;;;25.13;17.20;;;12.20;99.90;;;;;;5037159;28;20429;-66
2024/03/22 02:03:57;;;;;;;26.30;16.80;;;12.20;99.90;;;;;;5034995;28;21101;-70
2024/03/22 02:06:22;;;;;;;24.60;16.33;;;12.10;99.90;;;;;;5036383;28;20523;-69
2024/03/22 02:08:48;;;;;;;24.90;16.73;;;12.10;99.90;;;;;;5036150;28;21017;-70
2024/03/22 02:11:14;;;;;;;23.70;16.97;;;12.20;99.90;;;;;;5036225;28;20181;-68
2024/03/22 02:13:40;;;;;;;28.70;17.90;;;12.20;99.90;;;;;;5035526;28;20194;-69
2024/03/22 02:16:05;;;;;;;23.93;15.53;;;12.20;99.90;;;;;;5034893;28;20972;-66
2024/03/22 02:18:31;;;;;;;23.90;16.30;;;12.20;99.90;;;;;;5034583;28;20179;-69
2024/03/22 02:20:57;;;;;;;25.37;16.37;;;12.20;99.90;;;;;;5035300;28;20719;-67
2024/03/22 02:23:49;;;;;;;24.93;16.03;;;12.20;99.90;;;;;;5035394;28;20864;-69
2024/03/22 02:26:15;;;;;;;27.87;17.20;;;12.20;99.90;;;;;;5033859;28;20428;-67
2024/03/22 02:28:40;;;;;;;27.80;16.93;;;12.20;99.90;;;;;;5035313;28;20425;-69
2024/03/22 02:31:06;;;;;;;25.43;16.47;;;12.30;99.90;;;;;;5035767;28;20863;-66
2024/03/22 02:33:32;;;;;;;26.60;16.73;;;12.30;99.90;;;;;;5035542;28;20186;-66
2024/03/22 02:35:57;;;;;;;22.90;16.27;;;12.30;99.90;;;;;;5035443;28;20190;-69
2024/03/22 02:38:23;;;;;;;24.80;16.80;;;12.30;99.90;;;;;;5035534;28;20724;-66
2024/03/22 02:40:50;;;;;;;26.60;16.83;;;12.20;99.90;;;;;;5034746;28;20293;-68
2024/03/22 02:43:21;;;;;;;24.50;16.40;;;12.30;99.90;;;;;;5035748;28;20270;-70
2024/03/22 02:45:47;;;;;;;27.00;15.67;;;12.30;99.90;;;;;;5034458;28;20444;-68
2024/03/22 02:48:13;;;;;;;25.10;17.03;;;12.30;99.90;;;;;;5034990;28;20453;-68
2024/03/22 02:50:39;;;;;;;26.03;16.17;;;12.30;99.90;;;;;;5034834;28;20459;-68
2024/03/22 02:53:05;;;;;;;23.23;17.10;;;12.30;99.90;;;;;;5066500;28;20232;-66
2024/03/22 02:55:38;;;;;;;26.63;17.73;;;12.30;99.90;;;;;;5035382;28;20218;-68
2024/03/22 02:58:04;;;;;;;22.00;16.37;;;12.30;99.90;;;;;;5050085;28;20441;-69
2024/03/22 03:00:29;;;;;;;26.27;16.50;;;12.30;99.90;;;;;;5034100;28;20429;-66
2024/03/22 03:02:55;;;;;;;24.73;16.43;;;12.40;99.90;;;;;;5034499;28;20178;-68
2024/03/22 03:05:23;;;;;;;24.67;15.63;;;12.40;99.90;;;;;;5035207;28;20194;-68
2024/03/22 03:07:49;;;;;;;23.73;16.77;;;12.40;99.90;;;;;;5034698;28;20184;-68
2024/03/22 03:10:15;;;;;;;27.33;17.37;;;12.40;99.90;;;;;;5034463;28;20420;-67
2024/03/22 03:12:40;;;;;;;23.70;15.50;;;12.40;99.90;;;;;;5034485;28;20433;-71
2024/03/22 03:15:07;;;;;;;24.60;17.60;;;12.40;99.90;;;;;;5035530;28;20225;-68
2024/03/22 03:17:32;;;;;;;23.60;16.33;;;12.30;99.90;;;;;;5036257;28;20182;-67
2024/03/22 03:19:58;;;;;;;26.40;18.20;;;12.40;99.90;;;;;;5036588;28;20448;-66
2024/03/22 03:22:23;;;;;;;27.13;16.53;;;12.40;99.90;;;;;;5037750;28;20186;-68
2024/03/22 03:24:49;;;;;;;25.77;16.30;;;12.40;99.90;;;;;;5033309;28;20182;-67
2024/03/22 03:27:15;;;;;;;23.90;16.67;;;12.30;99.90;;;;;;5036241;28;20194;-68
2024/03/22 03:29:40;;;;;;;25.90;17.20;;;12.30;99.90;;;;;;5035286;28;20247;-66
2024/03/22 03:32:06;;;;;;;22.60;16.90;;;12.30;99.90;;;;;;5036232;28;20269;-68
2024/03/22 03:34:32;;;;;;;25.10;16.93;;;12.30;99.90;;;;;;5035175;28;20751;-69
2024/03/22 03:37:00;;;;;;;30.27;17.40;;;12.30;99.90;;;;;;5035618;28;20178;-68
2024/03/22 03:39:26;;;;;;;25.83;17.00;;;12.40;99.90;;;;;;5035321;28;20182;-67
2024/03/22 03:41:52;;;;;;;21.83;16.57;;;12.40;99.90;;;;;;5033874;28;20432;-67
2024/03/22 03:44:18;;;;;;;25.13;17.03;;;12.40;99.90;;;;;;5035713;28;20433;-69
2024/03/22 03:46:43;;;;;;;24.40;16.40;;;12.30;99.90;;;;;;5034768;28;20545;-66
2024/03/22 03:49:10;;;;;;;25.37;16.17;;;12.30;99.90;;;;;;5033985;28;20998;-66
2024/03/22 03:51:35;;;;;;;25.47;16.10;;;12.30;99.90;;;;;;5032626;28;20182;-66
2024/03/22 03:54:03;;;;;;;26.00;16.10;;;12.40;99.90;;;;;;5035421;28;20545;-67
2024/03/22 03:56:28;;;;;;;26.13;17.47;;;12.40;99.90;;;;;;5034840;28;20494;-70
2024/03/22 03:58:54;;;;;;;25.93;16.27;;;12.40;99.90;;;;;;5035242;28;20435;-67
2024/03/22 04:01:19;;;;;;;26.50;16.20;;;12.40;99.90;;;;;;5033961;28;20335;-71
2024/03/22 04:03:45;;;;;;;22.83;15.17;;;12.40;99.90;;;;;;5033607;28;20277;-70
2024/03/22 04:06:11;;;;;;;21.97;15.53;;;12.30;99.90;;;;;;5035250;28;20220;-69
2024/03/22 04:08:36;;;;;;;23.97;16.50;;;12.40;99.90;;;;;;5034402;28;20189;-68
2024/03/22 04:11:02;;;;;;;23.80;16.30;;;12.30;99.90;;;;;;5034803;28;20186;-70
2024/03/22 04:13:28;;;;;;;22.63;16.17;;;12.30;99.90;;;;;;5034917;28;20658;-70
2024/03/22 04:15:54;;;;;;;22.07;16.90;;;12.30;99.90;;;;;;5034106;28;20435;-69
2024/03/22 04:18:20;;;;;;;27.73;17.80;;;12.20;99.90;;;;;;5034401;28;20189;-71
2024/03/22 04:20:58;;;;;;;23.07;16.50;;;12.20;99.90;;;;;;5034454;28;21159;-69
2024/03/22 04:23:25;;;;;;;21.60;15.27;;;12.10;99.90;;;;;;5035642;28;20259;-68
2024/03/22 04:26:00;;;;;;;22.10;16.17;;;12.10;99.90;;;;;;5033338;28;20424;-70
2024/03/22 04:28:29;;;;;;;24.50;15.57;;;12.10;99.90;;;;;;5033880;28;20515;-69
2024/03/22 04:31:06;;;;;;;22.63;17.10;;;12.20;99.90;;;;;;5033408;28;20440;-69
2024/03/22 04:33:32;;;;;;;26.60;14.63;;;12.10;99.90;;;;;;5033343;28;20421;-71
2024/03/22 04:36:00;;;;;;;21.20;15.37;;;12.10;99.90;;;;;;5033808;28;20487;-69
2024/03/22 04:38:26;;;;;;;21.07;15.50;;;12.10;99.90;;;;;;5033803;28;20515;-68
2024/03/22 04:40:53;;;;;;;23.33;15.77;;;12.20;99.90;;;;;;5033838;28;20420;-69
2024/03/22 04:43:20;;;;;;;19.73;14.67;;;12.10;99.90;;;;;;5034627;28;20437;-68
2024/03/22 04:45:47;;;;;;;23.27;15.17;;;12.10;99.90;;;;;;5033055;28;20920;-68
2024/03/22 04:48:17;;;;;;;22.63;15.20;;;12.20;99.90;;;;;;5034935;28;20565;-69
2024/03/22 04:50:43;;;;;;;21.37;14.30;;;12.20;99.90;;;;;;5033833;28;20421;-69
2024/03/22 04:53:09;;;;;;;19.83;15.27;;;12.20;99.90;;;;;;5034692;28;20435;-68
2024/03/22 04:55:34;;;;;;;22.23;14.30;;;12.30;99.90;;;;;;5032972;28;20216;-69
2024/03/22 04:58:00;;;;;;;26.37;15.13;;;12.30;99.90;;;;;;5034043;28;20248;-67
2024/03/22 05:00:26;;;;;;;19.07;14.30;;;12.30;99.90;;;;;;5033437;28;20651;-70
2024/03/22 05:02:52;;;;;;;20.23;14.13;;;12.30;99.90;;;;;;5034009;28;20239;-70
2024/03/22 05:05:18;;;;;;;19.93;15.13;;;12.20;99.90;;;;;;5035271;28;20888;-69
2024/03/22 05:07:44;;;;;;;19.07;14.63;;;12.20;99.90;;;;;;5032356;28;21025;-69
2024/03/22 05:10:10;;;;;;;21.00;15.17;;;12.20;99.90;;;;;;5037078;28;20510;-69
2024/03/22 05:12:36;;;;;;;22.03;15.40;;;12.20;99.90;;;;;;5036708;28;20178;-67
2024/03/22 05:15:06;;;;;;;25.03;15.47;;;12.20;99.90;;;;;;5037953;28;20221;-71
2024/03/22 05:17:32;;;;;;;18.70;14.00;;;12.30;99.90;;;;;;5036219;28;20429;-70
2024/03/22 05:20:01;;;;;;;18.73;14.17;;;12.30;99.90;;;;;;5037901;28;20811;-67
2024/03/22 05:22:28;;;;;;;23.40;15.63;;;12.30;99.90;;;;;;5037266;28;20472;-69
2024/03/22 05:24:53;;;;;;;18.73;13.83;;;12.30;99.90;;;;;;5037853;28;20439;-68
2024/03/22 05:27:19;;;;;;;20.00;14.90;;;12.20;99.90;;;;;;5038544;28;20433;-67
2024/03/22 05:29:45;;;;;;;22.00;14.40;;;12.20;99.90;;;;;;5037070;28;20190;-69
2024/03/22 05:32:11;;;;;;;22.70;15.17;;;12.10;99.90;;;;;;5037961;28;20186;-67
2024/03/22 05:34:36;;;;;;;20.13;15.30;;;12.10;99.90;;;;;;5019567;28;20615;-69
2024/03/22 05:37:02;;;;;;;24.57;13.87;;;12.10;99.90;;;;;;5037536;28;20233;-69
2024/03/22 05:39:28;;;;;;;19.60;14.33;;;12.20;99.90;;;;;;5036751;28;20185;-67
2024/03/22 05:41:54;;;;;;;20.00;14.90;;;12.20;99.90;;;;;;5037895;28;20432;-68
2024/03/22 05:44:23;;;;;;;23.33;15.27;;;12.20;99.90;;;;;;5037382;28;20221;-68
2024/03/22 05:46:49;;;;;;;20.30;13.57;;;12.20;99.90;;;;;;5036902;28;20210;-67
2024/03/22 05:49:15;;;;;;;18.90;13.50;;;12.20;99.90;;;;;;5036764;28;20451;-67
2024/03/22 05:51:41;;;;;;;19.67;14.13;;;12.20;99.90;;;;;;5029769;28;20309;-68
2024/03/22 05:54:07;;;;;;;21.30;14.57;;;12.30;99.90;;;;;;5029477;28;20464;-68
2024/03/22 05:56:33;;;;;;;17.13;13.00;;;12.20;99.90;;;;;;5033544;28;20186;-69
2024/03/22 05:58:59;;;;;;;18.60;13.93;;;12.30;99.90;;;;;;5035011;28;20444;-69
2024/03/22 06:01:25;;;;;;;18.80;14.03;;;12.30;99.90;;;;;;5033726;28;20186;-68
2024/03/22 06:03:51;;;;;;;19.00;13.30;;;12.30;99.90;;;;;;5032635;28;20433;-69
2024/03/22 06:06:16;;;;;;;21.27;12.90;;;12.30;99.90;;;;;;5035197;28;20435;-68
2024/03/22 06:08:44;;;;;;;20.63;12.57;;;12.40;99.90;;;;;;5035505;28;20236;-68
2024/03/22 06:11:10;;;;;;;17.10;13.50;;;12.40;99.90;;;;;;5035337;28;20281;-69
2024/03/22 06:13:36;;;;;;;16.57;12.23;;;12.40;99.90;;;;;;5034269;28;20592;-70
2024/03/22 06:16:02;;;;;;;21.30;12.97;;;12.50;99.90;;;;;;5035170;28;20674;-70
2024/03/22 06:18:27;;;;;;;18.50;13.30;;;12.40;99.90;;;;;;5036209;28;20184;-70
2024/03/22 06:20:54;;;;;;;17.73;12.43;;;12.50;99.90;;;;;;5036510;28;20248;-70
2024/03/22 06:23:21;;;;;;;17.30;12.40;;;12.50;99.90;;;;;;5036261;28;20213;-68
2024/03/22 06:25:54;;;;;;;16.37;13.27;;;12.50;99.90;;;;;;5035557;28;21205;-71
2024/03/22 06:28:20;;;;;;;16.37;13.03;;;12.50;99.90;;;;;;5036192;28;20437;-70
2024/03/22 06:30:45;;;;;;;17.57;12.53;;;12.50;99.90;;;;;;5034903;28;20428;-69
2024/03/22 06:33:11;;;;;;;17.70;13.13;;;12.50;99.90;;;;;;5037284;28;20198;-69
2024/03/22 06:35:37;;;;;;;14.93;11.80;;;12.50;99.90;;;;;;5035296;28;20931;-67
2024/03/22 06:38:04;;;;;;;17.20;11.60;;;12.50;99.90;;;;;;5036173;28;20177;-71
2024/03/22 06:40:30;;;;;;;18.40;12.70;;;12.50;99.90;;;;;;5033976;28;20601;-68
2024/03/22 06:42:55;;;;;;;18.53;12.53;;;12.60;99.90;;;;;;5035826;28;20428;-67
2024/03/22 06:45:21;;;;;;;21.33;12.80;;;12.60;99.90;;;;;;5035469;28;20571;-68
2024/03/22 06:47:47;;;;;;;19.23;13.63;;;12.70;99.90;;;;;;5035025;28;20206;-67
2024/03/22 06:50:13;;;;;;;14.27;11.40;;;12.70;99.90;;;;;;5034801;28;20193;-69
2024/03/22 06:52:39;;;;;;;17.53;12.70;;;12.70;99.90;;;;;;5033783;28;20564;-68
2024/03/22 06:55:06;;;;;;;18.43;12.73;;;12.70;99.90;;;;;;5034070;28;20224;-68
2024/03/22 06:57:33;;;;;;;18.47;12.10;;;12.70;99.90;;;;;;5034300;28;20189;-69
2024/03/22 06:59:59;;;;;;;15.37;12.43;;;12.70;99.90;;;;;;5035498;28;20433;-70
2024/03/22 07:02:25;;;;;;;14.17;11.17;;;12.70;99.90;;;;;;5032963;28;20437;-71
2024/03/22 07:04:52;;;;;;;18.70;12.60;;;12.80;99.90;;;;;;5035764;28;20174;-69
2024/03/22 07:07:18;;;;;;;15.10;11.93;;;12.80;99.90;;;;;;5034628;28;20439;-67
2024/03/22 07:09:44;;;;;;;14.60;12.90;;;12.80;99.90;;;;;;5035700;28;20787;-68
2024/03/22 07:12:09;;;;;;;21.87;12.57;;;12.90;99.90;;;;;;5034819;28;20467;-70
2024/03/22 07:14:35;;;;;;;18.63;13.00;;;12.80;99.90;;;;;;5031295;28;20218;-70
2024/03/22 07:17:01;;;;;;;19.90;13.10;;;12.90;99.90;;;;;;5034055;28;20673;-68
2024/03/22 07:19:28;;;;;;;16.93;12.93;;;12.90;99.90;;;;;;5034787;28;20186;-69
2024/03/22 07:21:54;;;;;;;18.23;12.80;;;12.90;99.90;;;;;;5034831;28;20211;-68
2024/03/22 07:24:23;;;;;;;16.00;12.60;;;12.90;99.90;;;;;;5034212;28;20437;-69
2024/03/22 07:26:49;;;;;;;18.20;12.60;;;13.00;99.90;;;;;;5032407;28;20280;-68
2024/03/22 07:29:15;;;;;;;15.90;12.80;;;13.00;99.90;;;;;;5032281;28;20440;-70
2024/03/22 07:31:40;;;;;;;14.00;11.80;;;13.10;99.90;;;;;;5032923;28;20946;-70
2024/03/22 07:34:06;;;;;;;15.97;12.10;;;13.10;99.90;;;;;;5034415;28;20324;-70
2024/03/22 07:36:36;;;;;;;20.50;12.93;;;13.20;99.90;;;;;;5034156;28;20186;-69
2024/03/22 07:39:03;;;;;;;25.77;13.60;;;13.30;99.90;;;;;;5034395;28;21027;-69
2024/03/22 07:41:29;;;;;;;16.00;12.70;;;13.30;99.90;;;;;;5033359;28;20443;-71
2024/03/22 07:43:55;;;;;;;63.00;16.10;;;13.40;99.90;;;;;;5033626;28;20452;-70
2024/03/22 07:46:21;;;;;;;20.30;12.60;;;13.50;99.90;;;;;;5033891;28;20532;-69
2024/03/22 07:48:46;;;;;;;15.37;12.50;;;13.50;99.90;;;;;;5035184;28;20498;-68
2024/03/22 07:51:12;;;;;;;18.87;13.20;;;13.60;99.90;;;;;;5034732;28;20450;-69
2024/03/22 07:53:38;;;;;;;16.70;12.67;;;13.60;99.90;;;;;;5031396;28;20798;-69
2024/03/22 07:56:03;;;;;;;18.57;13.47;;;13.70;99.90;;;;;;5032935;28;20186;-68
2024/03/22 07:58:29;;;;;;;18.37;13.23;;;13.70;99.90;;;;;;5033894;28;20185;-70
2024/03/22 08:00:55;;;;;;;17.63;13.53;;;13.80;99.90;;;;;;5034428;28;20808;-70
2024/03/22 08:03:20;;;;;;;18.20;13.50;;;13.70;99.90;;;;;;5032997;28;20186;-68
2024/03/22 08:05:46;;;;;;;19.93;14.37;;;13.70;99.90;;;;;;5034112;28;20220;-68
2024/03/22 08:08:12;;;;;;;18.90;14.40;;;13.80;99.90;;;;;;5034075;28;20191;-70
2024/03/22 08:10:37;;;;;;;25.60;13.80;;;13.70;99.90;;;;;;5031942;28;20220;-68
2024/03/22 08:13:03;;;;;;;21.57;14.70;;;13.70;99.90;;;;;;5033169;28;20197;-68
2024/03/22 08:15:30;;;;;;;19.60;14.30;;;13.70;99.90;;;;;;5033399;28;20311;-71
2024/03/22 08:17:57;;;;;;;17.80;14.53;;;13.80;99.90;;;;;;5034063;28;20431;-68
2024/03/22 08:20:23;;;;;;;17.10;14.03;;;13.80;99.90;;;;;;5032294;28;20456;-69
2024/03/22 08:22:49;;;;;;;18.03;13.93;;;13.80;99.90;;;;;;5034102;28;20425;-68
2024/03/22 08:25:17;;;;;;;19.47;15.10;;;13.90;99.90;;;;;;5033779;28;20432;-71
2024/03/22 08:27:47;;;;;;;22.13;15.07;;;13.90;99.90;;;;;;5033243;28;20224;-68
2024/03/22 08:30:13;;;;;;;19.83;14.13;;;13.90;99.90;;;;;;5033561;28;20478;-69
2024/03/22 08:32:38;;;;;;;21.77;16.00;;;13.90;99.90;;;;;;5032739;28;20964;-67
2024/03/22 08:35:04;;;;;;;19.23;15.40;;;14.00;99.90;;;;;;5032796;28;20563;-70
2024/03/22 08:37:33;;;;;;;18.17;14.13;;;14.10;99.90;;;;;;5032874;28;20209;-70
2024/03/22 08:39:58;;;;;;;17.90;14.30;;;14.20;99.90;;;;;;5033087;28;20429;-71
2024/03/22 08:42:24;;;;;;;18.20;14.10;;;14.20;99.90;;;;;;5032421;28;20435;-68
2024/03/22 08:44:50;;;;;;;18.63;13.83;;;14.30;99.90;;;;;;5033653;28;20175;-70
2024/03/22 08:47:15;;;;;;;19.90;15.43;;;14.30;99.90;;;;;;5032430;28;20201;-70
2024/03/22 08:49:45;;;;;;;17.90;13.00;;;14.30;99.90;;;;;;5031247;28;20175;-67
2024/03/22 08:52:11;;;;;;;16.30;13.23;;;14.30;99.90;;;;;;5031402;28;20201;-69
2024/03/22 08:54:37;;;;;;;18.60;13.33;;;14.30;99.90;;;;;;5031193;28;21041;-68
2024/03/22 08:57:02;;;;;;;18.07;13.33;;;14.30;99.90;;;;;;5031692;28;20190;-70
2024/03/22 08:59:28;;;;;;;18.93;12.97;;;14.30;99.90;;;;;;5030504;28;20189;-69
2024/03/22 09:01:54;;;;;;;15.53;13.30;;;14.30;99.90;;;;;;5032384;28;20264;-67
2024/03/22 09:04:20;;;;;;;15.20;11.90;;;14.30;99.90;;;;;;5032768;28;20273;-70
2024/03/22 09:06:46;;;;;;;13.30;11.37;;;14.30;99.90;;;;;;5033281;28;20189;-68
2024/03/22 09:09:12;;;;;;;17.27;11.13;;;14.40;99.90;;;;;;5033010;28;20515;-68
2024/03/22 09:11:38;;;;;;;21.70;12.17;;;14.40;99.90;;;;;;5032842;28;20468;-69
2024/03/22 09:14:04;;;;;;;17.73;13.73;;;14.40;99.90;;;;;;5032202;28;20582;-68
2024/03/22 09:16:30;;;;;;;14.80;12.43;;;14.40;99.90;;;;;;5031303;28;20189;-68
2024/03/22 10:08:22;;;;;;;13.40;11.13;;;14.70;99.90;;;;;;5057660;28;20633;-70
2024/03/22 10:10:48;;;;;;;16.43;10.57;;;14.70;99.90;;;;;;5051792;28;20548;-68
2024/03/22 10:13:14;;;;;;;11.97;10.20;;;14.80;99.90;;;;;;5049612;28;20177;-68
2024/03/22 10:15:39;;;;;;;10.90;8.97;;;14.90;99.90;;;;;;5051857;28;20189;-69
2024/03/22 10:18:05;;;;;;;14.70;9.97;;;15.00;99.90;;;;;;5051501;28;20178;-69
2024/03/22 10:20:31;;;;;;;15.23;10.00;;;15.10;99.90;;;;;;5056537;28;20185;-69
2024/03/22 10:22:59;;;;;;;10.90;9.27;;;15.10;99.90;;;;;;5051761;28;20283;-68
2024/03/22 10:25:27;;;;;;;18.63;10.67;;;15.20;99.90;;;;;;5051621;28;20253;-68
2024/03/22 10:27:54;;;;;;;18.30;10.83;;;15.30;99.90;;;;;;5051066;28;20472;-69
2024/03/22 10:30:21;;;;;;;13.43;9.90;;;15.30;99.90;;;;;;5050730;28;20427;-68
2024/03/22 10:32:48;;;;;;;13.67;10.43;;;15.40;99.90;;;;;;5051996;28;20440;-69
2024/03/22 10:35:15;;;;;;;15.17;10.03;;;15.40;99.90;;;;;;5051126;28;20519;-68
2024/03/22 10:37:41;;;;;;;11.57;8.83;;;15.40;99.90;;;;;;5051149;28;20470;-69
2024/03/22 10:40:11;;;;;;;11.30;9.00;;;15.50;99.90;;;;;;5082353;28;20795;-70
2024/03/22 10:42:40;;;;;;;15.13;10.00;;;15.50;99.90;;;;;;5051169;28;20815;-68
2024/03/22 10:45:08;;;;;;;13.33;8.73;;;15.40;99.90;;;;;;5050835;28;20460;-69
2024/03/22 10:47:36;;;;;;;11.10;9.23;;;15.50;99.90;;;;;;5050698;28;20476;-70
2024/03/22 10:50:05;;;;;;;15.70;9.63;;;15.50;99.90;;;;;;5051007;28;20489;-69
2024/03/22 10:52:52;;;;;;;11.10;8.70;;;15.50;99.90;;;;;;5050275;28;20519;-67
2024/03/22 10:55:30;;;;;;;10.40;9.13;;;15.40;99.90;;;;;;5050123;28;20439;-69
2024/03/22 10:57:56;;;;;;;12.43;8.87;;;15.40;99.90;;;;;;5051348;28;20424;-70
2024/03/22 11:00:35;;;;;;;10.07;8.30;;;15.40;99.90;;;;;;5050579;28;20489;-68
2024/03/22 11:03:04;;;;;;;12.10;8.70;;;15.30;99.90;;;;;;5050669;28;20863;-69
2024/03/22 11:05:30;;;;;;;11.83;8.47;;;15.30;99.90;;;;;;5051306;28;20424;-69
2024/03/22 11:08:29;;;;;;;11.90;9.23;;;15.40;99.90;;;;;;5045640;28;20453;-67
2024/03/22 11:10:57;;;;;;;8.90;8.00;;;15.40;99.90;;;;;;5068079;28;20750;-70
2024/03/22 11:13:23;;;;;;;15.60;9.03;;;15.40;99.90;;;;;;5037279;28;20960;-70
2024/03/22 11:15:52;;;;;;;13.20;9.90;;;15.40;99.90;;;;;;5037024;28;21343;-69
2024/03/22 11:18:18;;;;;;;13.17;9.83;;;15.50;99.90;;;;;;5036404;28;20464;-69
2024/03/22 11:20:47;;;;;;;12.10;9.10;;;15.60;99.90;;;;;;5037368;28;20433;-68
2024/03/22 11:23:13;;;;;;;12.07;8.93;;;15.60;99.90;;;;;;5037548;28;20447;-70
2024/03/22 11:25:38;;;;;;;14.07;9.90;;;15.60;99.90;;;;;;5037266;28;20416;-68
2024/03/22 11:28:05;;;;;;;11.70;9.03;;;15.60;99.90;;;;;;5036935;28;20202;-68
2024/03/22 11:30:32;;;;;;;11.67;8.53;;;15.70;99.90;;;;;;5035953;28;20192;-70
2024/03/22 11:32:58;;;;;;;11.43;9.27;;;15.80;99.90;;;;;;5037173;28;20440;-70
2024/03/22 11:35:23;;;;;;;18.20;8.40;;;15.80;99.90;;;;;;5036660;28;20507;-68
2024/03/22 11:37:50;;;;;;;12.60;8.80;;;15.80;99.90;;;;;;5037070;28;20517;-69
2024/03/22 11:40:16;;;;;;;11.70;8.13;;;15.90;99.90;;;;;;5036660;28;20706;-69
2024/03/22 11:42:48;;;;;;;14.40;9.10;;;15.90;99.90;;;;;;5037679;28;20428;-70
2024/03/22 11:45:17;;;;;;;12.50;9.50;;;15.90;99.90;;;;;;5036732;28;20429;-69
2024/03/22 11:47:44;;;;;;;11.87;10.30;;;15.90;99.90;;;;;;5037735;28;20468;-69
2024/03/22 11:50:14;;;;;;;12.97;10.47;;;15.90;99.90;;;;;;5036775;28;20416;-69
2024/03/22 11:52:43;;;;;;;11.83;9.97;;;16.00;99.90;;;;;;5036815;28;20474;-68
2024/03/22 11:55:10;;;;;;;13.07;9.80;;;16.00;99.90;;;;;;5036208;28;20423;-68
2024/03/22 11:57:36;;;;;;;14.70;9.50;;;16.00;99.90;;;;;;5036120;28;20433;-69
2024/03/22 12:00:08;;;;;;;14.00;9.80;;;16.00;99.90;;;;;;5036906;28;20869;-67
2024/03/22 12:02:36;;;;;;;15.00;11.30;;;16.00;99.90;;;;;;5036118;28;20422;-69
2024/03/22 12:05:02;;;;;;;13.80;11.47;;;15.90;99.90;;;;;;5036325;28;20762;-69
2024/03/22 12:07:28;;;;;;;17.13;10.90;;;15.90;99.90;;;;;;5034898;28;20480;-69
2024/03/22 12:09:54;;;;;;;14.53;11.00;;;15.90;99.90;;;;;;5035804;28;20466;-69
2024/03/22 12:12:22;;;;;;;16.27;11.10;;;15.90;99.90;;;;;;5034898;28;20436;-68
2024/03/22 12:14:51;;;;;;;14.67;11.03;;;15.80;99.90;;;;;;5050333;28;20179;-68
2024/03/22 12:17:16;;;;;;;13.50;11.00;;;15.80;99.90;;;;;;5034128;28;20464;-68
2024/03/22 12:19:42;;;;;;;11.67;10.40;;;15.80;99.90;;;;;;5034046;28;20432;-67
2024/03/22 12:22:08;;;;;;;13.10;9.80;;;15.70;99.90;;;;;;5033860;28;20436;-68
2024/03/22 12:24:34;;;;;;;16.70;10.43;;;15.70;99.90;;;;;;5035719;28;20224;-67
2024/03/22 12:26:59;;;;;;;14.63;11.40;;;15.70;99.90;;;;;;5033351;28;20217;-70
2024/03/22 12:29:25;;;;;;;12.90;10.50;;;15.60;99.90;;;;;;5036041;28;20186;-69
2024/03/22 12:31:51;;;;;;;13.80;9.60;;;15.60;99.90;;;;;;5035716;28;20259;-67
2024/03/22 12:34:17;;;;;;;11.63;8.70;;;15.60;99.90;;;;;;5036163;28;20273;-68
2024/03/22 12:36:43;;;;;;;11.70;9.17;;;15.50;99.90;;;;;;5036320;28;20277;-67
2024/03/22 12:39:09;;;;;;;20.87;10.37;;;15.50;99.90;;;;;;5035463;28;20178;-68
2024/03/22 12:41:34;;;;;;;12.50;9.17;;;15.40;99.90;;;;;;5036153;28;20433;-68
2024/03/22 12:44:01;;;;;;;12.90;9.63;;;15.30;99.90;;;;;;5036371;28;20239;-67
2024/03/22 12:46:27;;;;;;;10.23;8.60;;;15.30;99.90;;;;;;5066755;28;20499;-67
2024/03/22 12:48:53;;;;;;;13.67;9.70;;;15.20;99.90;;;;;;5035516;28;20542;-70
2024/03/22 12:51:20;;;;;;;11.03;8.93;;;15.20;99.90;;;;;;5035085;28;20455;-69
2024/03/22 12:53:45;;;;;;;13.07;8.87;;;15.20;99.90;;;;;;5036769;28;20429;-70
2024/03/22 12:56:11;;;;;;;10.90;8.93;;;15.10;99.90;;;;;;5034876;28;20443;-68
2024/03/22 12:58:37;;;;;;;11.20;9.00;;;15.10;99.90;;;;;;5035488;28;20621;-67
2024/03/22 13:01:05;;;;;;;10.83;8.70;;;15.10;99.90;;;;;;5034991;28;20428;-67
2024/03/22 13:03:32;;;;;;;13.37;9.70;;;15.10;99.90;;;;;;5035769;28;20566;-67
2024/03/22 13:05:58;;;;;;;12.33;9.33;;;15.00;99.90;;;;;;5034964;28;20472;-69
2024/03/22 13:08:24;;;;;;;12.97;10.10;;;15.00;99.90;;;;;;5036046;28;20479;-70
2024/03/22 13:10:50;;;;;;;12.37;9.80;;;15.00;99.90;;;;;;5035668;28;20510;-67
2024/03/22 13:13:16;;;;;;;15.80;10.30;;;15.00;99.90;;;;;;5035522;28;20677;-67
2024/03/22 13:15:46;;;;;;;11.70;9.67;;;14.90;99.90;;;;;;5033619;28;20539;-70